28 de setembro de 2022

Hora Código Clima Temp. Visibilidade Tecto Vento METAR/SPECI
18:00
V
21 °C 10 km+ - 090° 090° 8 kt METAR AYMH 280800Z 09008KT 9999 HZ SCT040 21/15 Q1018=
17:00
V
23 °C 10 km+ - 090° 090° 10 kt METAR AYMH 280700Z 09010KT 9999 HZ SCT040 23/14 Q1017
16:00
V
25 °C 10 km+ - 090° 090° 10 kt METAR AYMH 280600Z 09010KT 9999 HZ SCT040 25/14 Q1017
15:00
V
24 °C 10 km+ - 090° 090° 10 kt METAR AYMH 280500Z 09010KT 9999 HZ SCT040 24/14 Q1017
14:00
V
25 °C 10 km+ - 090° 090° 10 kt METAR AYMH 280400Z 09010KT 9999 HZ SCT040 25/14 Q1017
13:00
V
24 °C 10 km+ - 090° 090° 10 kt METAR AYMH 280300Z 09010KT 9999 HZ SCT040 24/15 Q1019
12:00
V
23 °C 10 km+ - Var Var 4 kt METAR AYMH 280200Z VRB04KT 9999 HZ SCT030 23/14 Q1020
11:00
V
22 °C 10 km+ - Var Var 3 kt METAR AYMH 280100Z VRB03KT 9999 HZ SCT030 22/15 Q1021
10:00
V
21 °C 10 km+ - Var Var 3 kt METAR AYMH 280000Z VRB03KT 9999 HZ SCT030 21/16 Q1022
09:00
V
19 °C 10 km+ 3.000 ft Var Var 2 kt METAR AYMH 272300Z VRB02KT 9999 BKN030 19/16 Q1022=
08:00
V
17 °C 10 km+ 3.000 ft Var Var 2 kt METAR AYMH 272200Z VRB02KT 9999 SCT005 BKN030 17/16 Q1022=
07:00
V
16 °C 10 km+ 4.000 ft Var Var 2 kt METAR AYMH 272100Z VRB02KT 9999 SCT005 BKN040 16/15 Q1021=
06:00
V
16 °C 10 km+ 4.000 ft Var Var 2 kt METAR AYMH 272000Z VRB02KT 9999 SCT005 BKN040 16/15 Q1020=

27 de setembro de 2022

Hora Código Clima Temp. Visibilidade Tecto Vento METAR/SPECI
19:00
V
18 °C 10 km+ 4.000 ft 150° 150° 8 kt METAR AYMH 270900Z 15008KT 9999 BKN040 18/15 Q1018
18:00
V
19 °C 10 km+ 4.000 ft 150° 150° 10 kt METAR AYMH 270800Z 15010KT 9999 HZ BKN040 19/14 Q1018=
17:00
V
19 °C 10 km+ 4.000 ft 150° 150° 10 kt METAR AYMH 270700Z 15010KT 9999 HZ BKN040 19/13 Q1017
16:00
V
25 °C 10 km+ 4.000 ft 210° 210° 10 kt METAR AYMH 270600Z 21010KT 9999 FUHZ BKN040 25/15 Q1016
15:00
V
24 °C 10 km+ 4.000 ft 260° 260° 10 kt METAR AYMH 270500Z 26010KT 9999 HZ BKN040 24/16 Q1016
14:00
V
27 °C 10 km+ - 310° 310° 8 kt METAR AYMH 270400Z 31008KT 9999 HZ SCT040 27/14 Q1017
13:00
V
26 °C 10 km+ - 310° 310° 8 kt METAR AYMH 270300Z 31008KT 9999 HZ SCT040 26/14 Q1018=
12:00
V
25 °C 10 km+ - Var Var 4 kt METAR AYMH 270200Z VRB04KT 9999 HZ SCT040 25/14 Q1019=
11:00
V
24 °C 10 km+ - Var Var 4 kt METAR AYMH 270100Z VRB04KT 9999 HZ SCT030 24/14 Q1020
10:00
V
22 °C 10 km+ - Var Var 4 kt METAR AYMH 270000Z VRB04KT 9999 HZ SCT030 22/14 Q1021
09:00
V
20 °C 10 km+ - Var Var 4 kt METAR AYMH 262300Z VRB04KT 9999 HZ FEW030 20/15 Q1022
08:00
V
16 °C 10 km+ - Var 000° 0 kt METAR AYMH 262200Z 00000KT 9999 HZ SCT020 16/15 Q1022=
07:00
V
14 °C 10 km+ - Var 000° 0 kt METAR AYMH 262100Z 00000KT 9999 HZ SCT025 14/14 Q1021
06:00
V
12 °C 10 km+ - Var 000° 0 kt METAR AYMH 262000Z 00000KT 9999 FG SCT020 12/12 Q1020
05:00
V
13 °C 10 km+ - Var 000° 0 kt METAR AYMH 261900Z 00000KT 9999 SCT020 13/13 Q1019=
Dados mais antigos

Nós e terceiros acompanhamos seu comportamento na internet em nosso site com cookies. Se você continuar, nós assumimos que você concorda com nossa política de cookies. Saiba mais